sensor_id;sensor_type;location;lat;lon;timestamp;pressure;altitude;pressure_sealevel;temperature;humidity
31585;BME280;18191;51.288;12.390;2023-03-25T00:04:38;49076.47;;;-144.47;85.78
31585;BME280;18191;51.288;12.390;2023-03-25T00:09:30;49068.50;;;-144.47;85.60
31585;BME280;18191;51.288;12.390;2023-03-25T00:14:20;49074.47;;;-144.47;85.61
31585;BME280;18191;51.288;12.390;2023-03-25T00:19:10;49074.47;;;-144.47;85.27
31585;BME280;18191;51.288;12.390;2023-03-25T00:24:00;49084.44;;;-144.47;85.28
31585;BME280;18191;51.288;12.390;2023-03-25T00:28:51;49092.38;;;-144.47;85.02
31585;BME280;18191;51.288;12.390;2023-03-25T00:33:41;49112.28;;;-144.47;84.44
31585;BME280;18191;51.288;12.390;2023-03-25T00:38:32;49090.41;;;-144.47;83.44
31585;BME280;18191;51.288;12.390;2023-03-25T00:43:23;49084.44;;;-144.47;82.77
31585;BME280;18191;51.288;12.390;2023-03-25T00:48:14;49084.44;;;-144.47;82.01
31585;BME280;18191;51.288;12.390;2023-03-25T00:53:04;49068.50;;;-144.47;81.49
31585;BME280;18191;51.288;12.390;2023-03-25T00:57:54;49056.59;;;-144.47;81.84
31585;BME280;18191;51.288;12.390;2023-03-25T01:02:45;49072.50;;;-144.47;81.96
31585;BME280;18191;51.288;12.390;2023-03-25T01:07:37;49104.31;;;-144.47;81.50
31585;BME280;18191;51.288;12.390;2023-03-25T01:12:28;49124.22;;;-144.47;81.56
31585;BME280;18191;51.288;12.390;2023-03-25T01:17:19;49072.50;;;-144.47;80.86
31585;BME280;18191;51.288;12.390;2023-03-25T01:22:09;49100.34;;;-144.47;79.43
31585;BME280;18191;51.288;12.390;2023-03-25T01:26:59;49084.44;;;-144.47;79.10
31585;BME280;18191;51.288;12.390;2023-03-25T01:31:49;49086.41;;;-144.47;78.08
31585;BME280;18191;51.288;12.390;2023-03-25T01:36:40;49100.34;;;-144.47;77.35
31585;BME280;18191;51.288;12.390;2023-03-25T01:41:35;49080.44;;;-144.47;76.37
31585;BME280;18191;51.288;12.390;2023-03-25T01:46:25;49070.50;;;-144.47;77.15
31585;BME280;18191;51.288;12.390;2023-03-25T01:51:17;49032.72;;;-144.47;75.91
31585;BME280;18191;51.288;12.390;2023-03-25T01:56:10;49066.53;;;-144.47;76.59
31585;BME280;18191;51.288;12.390;2023-03-25T02:01:02;49068.50;;;-144.47;76.41
31585;BME280;18191;51.288;12.390;2023-03-25T02:06:03;49076.47;;;-144.47;76.63
31585;BME280;18191;51.288;12.390;2023-03-25T02:10:56;49056.59;;;-144.47;76.85
31585;BME280;18191;51.288;12.390;2023-03-25T02:41:21;49080.44;;;-144.47;78.52
31585;BME280;18191;51.288;12.390;2023-03-25T02:46:14;49060.56;;;-144.47;79.75
31585;BME280;18191;51.288;12.390;2023-03-25T02:51:06;49104.31;;;-144.47;80.50
31585;BME280;18191;51.288;12.390;2023-03-25T02:56:00;49104.31;;;-144.47;81.70
31585;BME280;18191;51.288;12.390;2023-03-25T03:00:52;49088.41;;;-144.47;80.08
31585;BME280;18191;51.288;12.390;2023-03-25T03:05:48;49112.28;;;-144.47;80.70
31585;BME280;18191;51.288;12.390;2023-03-25T03:10:46;49070.50;;;-144.47;81.27
31585;BME280;18191;51.288;12.390;2023-03-25T03:15:41;49092.38;;;-144.47;79.88
31585;BME280;18191;51.288;12.390;2023-03-25T03:20:37;49148.09;;;-144.47;79.88
31585;BME280;18191;51.288;12.390;2023-03-25T03:25:36;49096.38;;;-144.47;80.06
31585;BME280;18191;51.288;12.390;2023-03-25T03:30:48;49128.19;;;-144.47;80.16
31585;BME280;18191;51.288;12.390;2023-03-25T03:35:53;49084.44;;;-144.47;78.93
31585;BME280;18191;51.288;12.390;2023-03-25T03:40:49;49080.44;;;-144.47;78.86
31585;BME280;18191;51.288;12.390;2023-03-25T03:45:41;49060.56;;;-144.47;78.36
31585;BME280;18191;51.288;12.390;2023-03-25T03:50:35;49054.59;;;-144.47;78.63
31585;BME280;18191;51.288;12.390;2023-03-25T03:55:31;49100.34;;;-144.47;76.69
31585;BME280;18191;51.288;12.390;2023-03-25T04:00:35;49080.44;;;-144.47;76.36
31585;BME280;18191;51.288;12.390;2023-03-25T04:05:27;49068.50;;;-144.47;75.22
31585;BME280;18191;51.288;12.390;2023-03-25T04:10:32;49080.44;;;-144.47;74.57
31585;BME280;18191;51.288;12.390;2023-03-25T04:20:56;49084.44;;;-144.47;73.95
31585;BME280;18191;51.288;12.390;2023-03-25T04:25:47;49052.59;;;-144.47;73.05
31585;BME280;18191;51.288;12.390;2023-03-25T04:30:46;49124.22;;;-144.47;72.25
31585;BME280;18191;51.288;12.390;2023-03-25T04:35:47;49044.66;;;-144.47;71.95
31585;BME280;18191;51.288;12.390;2023-03-25T04:40:39;49088.41;;;-144.47;70.71
31585;BME280;18191;51.288;12.390;2023-03-25T04:45:35;49116.25;;;-144.47;69.00
31585;BME280;18191;51.288;12.390;2023-03-25T04:50:27;49084.44;;;-144.47;69.39
31585;BME280;18191;51.288;12.390;2023-03-25T04:55:20;49084.44;;;-144.47;68.65
31585;BME280;18191;51.288;12.390;2023-03-25T05:00:12;49080.44;;;-144.47;66.23
31585;BME280;18191;51.288;12.390;2023-03-25T05:05:03;49104.31;;;-144.47;67.99
31585;BME280;18191;51.288;12.390;2023-03-25T05:09:53;49068.50;;;-144.47;68.16
31585;BME280;18191;51.288;12.390;2023-03-25T05:14:46;49068.50;;;-144.47;69.02
31585;BME280;18191;51.288;12.390;2023-03-25T05:19:36;49036.69;;;-144.47;68.91
31585;BME280;18191;51.288;12.390;2023-03-25T05:24:26;49084.44;;;-144.47;68.43
31585;BME280;18191;51.288;12.390;2023-03-25T05:29:17;49070.50;;;-144.47;67.50
31585;BME280;18191;51.288;12.390;2023-03-25T05:34:08;49054.59;;;-144.47;66.28
31585;BME280;18191;51.288;12.390;2023-03-25T05:38:58;49052.59;;;-144.47;66.09
31585;BME280;18191;51.288;12.390;2023-03-25T05:43:48;49074.47;;;-144.47;66.88
31585;BME280;18191;51.288;12.390;2023-03-25T05:48:40;49058.56;;;-144.47;66.07
31585;BME280;18191;51.288;12.390;2023-03-25T05:53:30;49088.41;;;-144.47;66.88
31585;BME280;18191;51.288;12.390;2023-03-25T05:58:21;49088.41;;;-144.47;66.83
31585;BME280;18191;51.288;12.390;2023-03-25T06:03:14;49076.47;;;-144.47;66.35
31585;BME280;18191;51.288;12.390;2023-03-25T06:08:04;49056.59;;;-144.47;63.46
31585;BME280;18191;51.288;12.390;2023-03-25T06:12:54;49064.53;;;-144.47;62.89
31585;BME280;18191;51.288;12.390;2023-03-25T06:17:45;49034.69;;;-144.47;62.45
31585;BME280;18191;51.288;12.390;2023-03-25T06:22:40;49064.53;;;-144.47;62.01
31585;BME280;18191;51.288;12.390;2023-03-25T06:27:32;49032.72;;;-144.47;61.39
31585;BME280;18191;51.288;12.390;2023-03-25T06:32:23;49056.59;;;-144.47;61.14
31585;BME280;18191;51.288;12.390;2023-03-25T06:37:15;49050.63;;;-144.47;60.41
31585;BME280;18191;51.288;12.390;2023-03-25T06:42:05;49060.56;;;-144.47;61.19
31585;BME280;18191;51.288;12.390;2023-03-25T06:46:56;49048.63;;;-144.47;61.59
31585;BME280;18191;51.288;12.390;2023-03-25T06:51:46;49074.47;;;-144.47;61.34
31585;BME280;18191;51.288;12.390;2023-03-25T06:56:37;49074.47;;;-144.47;61.81
31585;BME280;18191;51.288;12.390;2023-03-25T07:01:27;49064.53;;;-144.47;61.41
31585;BME280;18191;51.288;12.390;2023-03-25T07:06:19;49006.84;;;-144.47;60.51
31585;BME280;18191;51.288;12.390;2023-03-25T07:11:09;49042.66;;;-144.47;58.77
31585;BME280;18191;51.288;12.390;2023-03-25T07:16:01;49056.59;;;-144.47;59.75
31585;BME280;18191;51.288;12.390;2023-03-25T07:20:52;49044.66;;;-144.47;60.02
31585;BME280;18191;51.288;12.390;2023-03-25T07:25:42;49032.72;;;-144.47;64.86
31585;BME280;18191;51.288;12.390;2023-03-25T07:30:32;49022.75;;;-144.47;68.41
31585;BME280;18191;51.288;12.390;2023-03-25T07:35:22;49080.44;;;-144.47;69.82
31585;BME280;18191;51.288;12.390;2023-03-25T07:40:14;49048.63;;;-144.47;70.52
31585;BME280;18191;51.288;12.390;2023-03-25T07:45:05;49074.47;;;-144.47;72.92
31585;BME280;18191;51.288;12.390;2023-03-25T07:49:55;49034.69;;;-144.47;71.00
31585;BME280;18191;51.288;12.390;2023-03-25T07:54:45;49108.31;;;-144.47;71.52
31585;BME280;18191;51.288;12.390;2023-03-25T07:59:36;49082.44;;;-144.47;70.61
31585;BME280;18191;51.288;12.390;2023-03-25T08:04:26;49058.56;;;-144.47;71.03
31585;BME280;18191;51.288;12.390;2023-03-25T08:09:16;49068.50;;;-144.47;70.80
31585;BME280;18191;51.288;12.390;2023-03-25T08:14:06;49092.38;;;-144.47;68.71
31585;BME280;18191;51.288;12.390;2023-03-25T08:18:56;49104.31;;;-144.47;70.57
31585;BME280;18191;51.288;12.390;2023-03-25T08:23:47;49072.50;;;-144.47;70.24
31585;BME280;18191;51.288;12.390;2023-03-25T08:28:37;49046.63;;;-144.47;69.85
31585;BME280;18191;51.288;12.390;2023-03-25T08:33:27;49088.41;;;-144.47;68.42
31585;BME280;18191;51.288;12.390;2023-03-25T08:38:23;49068.50;;;-144.47;70.27
31585;BME280;18191;51.288;12.390;2023-03-25T08:43:14;49076.47;;;-144.47;69.13
31585;BME280;18191;51.288;12.390;2023-03-25T08:48:04;49084.44;;;-144.47;69.78
31585;BME280;18191;51.288;12.390;2023-03-25T08:52:56;49100.34;;;-144.47;69.89
31585;BME280;18191;51.288;12.390;2023-03-25T08:57:47;49056.59;;;-144.47;69.68
31585;BME280;18191;51.288;12.390;2023-03-25T09:02:37;49084.44;;;-144.47;70.59
31585;BME280;18191;51.288;12.390;2023-03-25T09:07:28;49054.59;;;-144.47;68.68
31585;BME280;18191;51.288;12.390;2023-03-25T09:12:19;49048.63;;;-144.47;65.53
31585;BME280;18191;51.288;12.390;2023-03-25T09:17:09;49060.56;;;-144.47;62.88
31585;BME280;18191;51.288;12.390;2023-03-25T09:21:59;49026.75;;;-144.47;57.79
31585;BME280;18191;51.288;12.390;2023-03-25T09:26:50;49044.66;;;-144.47;57.32
31585;BME280;18191;51.288;12.390;2023-03-25T09:31:40;49040.66;;;-144.47;57.73
31585;BME280;18191;51.288;12.390;2023-03-25T09:36:31;49080.44;;;-144.47;58.87
31585;BME280;18191;51.288;12.390;2023-03-25T09:46:23;49052.59;;;-144.47;59.53
31585;BME280;18191;51.288;12.390;2023-03-25T09:51:15;49052.59;;;-144.47;58.39
31585;BME280;18191;51.288;12.390;2023-03-25T09:56:10;49058.56;;;-144.47;59.07
31585;BME280;18191;51.288;12.390;2023-03-25T10:06:16;48992.94;;;-144.47;56.33
31585;BME280;18191;51.288;12.390;2023-03-25T10:11:45;49012.81;;;-144.47;54.97
31585;BME280;18191;51.288;12.390;2023-03-25T10:16:32;49036.69;;;-144.47;51.38
31585;BME280;18191;51.288;12.390;2023-03-25T10:21:35;49020.78;;;-144.47;50.12
31585;BME280;18191;51.288;12.390;2023-03-25T10:26:31;49028.72;;;-144.47;44.83
31585;BME280;18191;51.288;12.390;2023-03-25T10:31:23;49014.81;;;-144.47;45.75
31585;BME280;18191;51.288;12.390;2023-03-25T10:36:16;49038.69;;;-144.47;44.50
31585;BME280;18191;51.288;12.390;2023-03-25T10:41:20;49012.81;;;-144.47;47.20
31585;BME280;18191;51.288;12.390;2023-03-25T10:51:22;49016.78;;;-144.47;48.18
31585;BME280;18191;51.288;12.390;2023-03-25T10:56:15;49008.84;;;-144.47;47.46
31585;BME280;18191;51.288;12.390;2023-03-25T11:01:10;49028.72;;;-144.47;48.12
31585;BME280;18191;51.288;12.390;2023-03-25T11:06:01;49090.41;;;-144.47;48.71
31585;BME280;18191;51.288;12.390;2023-03-25T11:10:51;48977.00;;;-144.47;50.08
31585;BME280;18191;51.288;12.390;2023-03-25T11:15:46;49044.66;;;-144.47;49.95
31585;BME280;18191;51.288;12.390;2023-03-25T11:20:38;49068.50;;;-144.47;48.42
31585;BME280;18191;51.288;12.390;2023-03-25T11:25:29;49028.72;;;-144.47;47.48
31585;BME280;18191;51.288;12.390;2023-03-25T11:30:20;49000.88;;;-144.47;48.34
31585;BME280;18191;51.288;12.390;2023-03-25T11:35:16;49028.72;;;-144.47;45.59
31585;BME280;18191;51.288;12.390;2023-03-25T11:40:12;49072.50;;;-144.47;43.69
31585;BME280;18191;51.288;12.390;2023-03-25T11:45:02;49024.75;;;-144.47;42.84
31585;BME280;18191;51.288;12.390;2023-03-25T11:49:54;49004.84;;;-144.47;42.22
31585;BME280;18191;51.288;12.390;2023-03-25T11:54:45;48984.97;;;-144.47;43.50
31585;BME280;18191;51.288;12.390;2023-03-25T11:59:36;49030.72;;;-144.47;42.72
31585;BME280;18191;51.288;12.390;2023-03-25T12:04:28;49044.66;;;-144.47;43.38
31585;BME280;18191;51.288;12.390;2023-03-25T12:09:18;49016.78;;;-144.47;42.47
31585;BME280;18191;51.288;12.390;2023-03-25T12:14:24;49036.69;;;-144.47;42.87
31585;BME280;18191;51.288;12.390;2023-03-25T12:24:26;48988.94;;;-144.47;49.74
31585;BME280;18191;51.288;12.390;2023-03-25T12:34:16;48969.06;;;-144.47;52.27
31585;BME280;18191;51.288;12.390;2023-03-25T12:39:20;48992.94;;;-144.47;48.63
31585;BME280;18191;51.288;12.390;2023-03-25T13:04:27;48992.94;;;-144.47;44.14
31585;BME280;18191;51.288;12.390;2023-03-25T13:09:20;48990.94;;;-144.47;49.40
31585;BME280;18191;51.288;12.390;2023-03-25T13:14:20;49048.63;;;-144.47;61.54
31585;BME280;18191;51.288;12.390;2023-03-25T13:19:14;49074.47;;;-144.47;73.44
31585;BME280;18191;51.288;12.390;2023-03-25T13:29:00;49080.44;;;-144.47;79.91
31585;BME280;18191;51.288;12.390;2023-03-25T13:38:52;49078.47;;;-144.47;78.74
31585;BME280;18191;51.288;12.390;2023-03-25T13:43:46;49044.66;;;-144.47;80.32
31585;BME280;18191;51.288;12.390;2023-03-25T13:53:35;49050.63;;;-144.47;72.75
31585;BME280;18191;51.288;12.390;2023-03-25T13:58:33;49072.50;;;-144.47;71.20
31585;BME280;18191;51.288;12.390;2023-03-25T14:03:45;49040.66;;;-144.47;69.83
31585;BME280;18191;51.288;12.390;2023-03-25T14:13:51;49020.78;;;-144.47;67.64
31585;BME280;18191;51.288;12.390;2023-03-25T14:18:43;49022.75;;;-144.47;65.75
31585;BME280;18191;51.288;12.390;2023-03-25T14:23:35;49082.44;;;-144.47;63.07
31585;BME280;18191;51.288;12.390;2023-03-25T14:28:31;49080.44;;;-144.47;63.03
31585;BME280;18191;51.288;12.390;2023-03-25T14:33:22;49060.56;;;-144.47;63.38
31585;BME280;18191;51.288;12.390;2023-03-25T14:43:26;49068.50;;;-144.47;62.65
31585;BME280;18191;51.288;12.390;2023-03-25T14:48:23;49072.50;;;-144.47;60.70
31585;BME280;18191;51.288;12.390;2023-03-25T14:53:13;49076.47;;;-144.47;61.52
31585;BME280;18191;51.288;12.390;2023-03-25T14:58:05;49032.72;;;-144.47;60.86
31585;BME280;18191;51.288;12.390;2023-03-25T15:03:07;49060.56;;;-144.47;62.01
31585;BME280;18191;51.288;12.390;2023-03-25T15:13:05;49084.44;;;-144.47;58.72
31585;BME280;18191;51.288;12.390;2023-03-25T15:17:58;49034.69;;;-144.47;60.21
31585;BME280;18191;51.288;12.390;2023-03-25T15:38:20;49048.63;;;-144.47;60.88
31585;BME280;18191;51.288;12.390;2023-03-25T15:48:23;49064.53;;;-144.47;59.89
31585;BME280;18191;51.288;12.390;2023-03-25T15:58:40;49062.56;;;-144.47;56.57
31585;BME280;18191;51.288;12.390;2023-03-25T16:03:24;49042.66;;;-144.47;55.07
31585;BME280;18191;51.288;12.390;2023-03-25T16:08:17;49060.56;;;-144.47;55.63
31585;BME280;18191;51.288;12.390;2023-03-25T16:13:12;49076.47;;;-144.47;56.27
31585;BME280;18191;51.288;12.390;2023-03-25T16:18:06;49034.69;;;-144.47;54.97
31585;BME280;18191;51.288;12.390;2023-03-25T16:22:58;49048.63;;;-144.47;54.66
31585;BME280;18191;51.288;12.390;2023-03-25T16:27:51;49042.66;;;-144.47;54.65
31585;BME280;18191;51.288;12.390;2023-03-25T16:32:41;49028.72;;;-144.47;55.58
31585;BME280;18191;51.288;12.390;2023-03-25T16:37:31;48992.94;;;-144.47;55.78
31585;BME280;18191;51.288;12.390;2023-03-25T16:42:26;49028.72;;;-144.47;56.31
31585;BME280;18191;51.288;12.390;2023-03-25T16:47:20;49028.72;;;-144.47;56.09
31585;BME280;18191;51.288;12.390;2023-03-25T16:52:11;49046.63;;;-144.47;58.00
31585;BME280;18191;51.288;12.390;2023-03-25T16:57:06;49036.69;;;-144.47;58.82
31585;BME280;18191;51.288;12.390;2023-03-25T17:01:57;49034.69;;;-144.47;57.96
31585;BME280;18191;51.288;12.390;2023-03-25T17:06:50;49052.59;;;-144.47;59.14
31585;BME280;18191;51.288;12.390;2023-03-25T17:11:41;49068.50;;;-144.47;59.11
31585;BME280;18191;51.288;12.390;2023-03-25T17:16:35;49040.66;;;-144.47;59.24
31585;BME280;18191;51.288;12.390;2023-03-25T17:21:27;49060.56;;;-144.47;59.52
31585;BME280;18191;51.288;12.390;2023-03-25T17:26:19;49076.47;;;-144.47;60.92
31585;BME280;18191;51.288;12.390;2023-03-25T17:36:19;49036.69;;;-144.47;65.20
31585;BME280;18191;51.288;12.390;2023-03-25T17:41:10;49066.53;;;-144.47;66.72
31585;BME280;18191;51.288;12.390;2023-03-25T17:46:00;49046.63;;;-144.47;67.90
31585;BME280;18191;51.288;12.390;2023-03-25T17:50:53;49050.63;;;-144.47;67.83
31585;BME280;18191;51.288;12.390;2023-03-25T17:55:44;49058.56;;;-144.47;67.25
31585;BME280;18191;51.288;12.390;2023-03-25T18:00:35;49056.59;;;-144.47;67.66
31585;BME280;18191;51.288;12.390;2023-03-25T18:05:27;49052.59;;;-144.47;67.44
31585;BME280;18191;51.288;12.390;2023-03-25T18:10:18;49064.53;;;-144.47;67.25
31585;BME280;18191;51.288;12.390;2023-03-25T18:15:09;49056.59;;;-144.47;66.57
31585;BME280;18191;51.288;12.390;2023-03-25T18:19:59;49048.63;;;-144.47;66.95
31585;BME280;18191;51.288;12.390;2023-03-25T18:24:51;49032.72;;;-144.47;66.20
31585;BME280;18191;51.288;12.390;2023-03-25T18:29:41;49064.53;;;-144.47;66.04
31585;BME280;18191;51.288;12.390;2023-03-25T18:34:31;49092.38;;;-144.47;65.42
31585;BME280;18191;51.288;12.390;2023-03-25T18:39:22;49052.59;;;-144.47;68.04
31585;BME280;18191;51.288;12.390;2023-03-25T18:44:12;49084.44;;;-144.47;69.04
31585;BME280;18191;51.288;12.390;2023-03-25T18:49:04;49068.50;;;-144.47;68.31
31585;BME280;18191;51.288;12.390;2023-03-25T18:54:00;49072.50;;;-144.47;68.32
31585;BME280;18191;51.288;12.390;2023-03-25T18:58:50;49048.63;;;-144.47;68.89
31585;BME280;18191;51.288;12.390;2023-03-25T19:03:41;49076.47;;;-144.47;66.71
31585;BME280;18191;51.288;12.390;2023-03-25T19:08:33;49036.69;;;-144.47;67.13
31585;BME280;18191;51.288;12.390;2023-03-25T19:13:23;49076.47;;;-144.47;67.31
31585;BME280;18191;51.288;12.390;2023-03-25T19:18:17;49072.50;;;-144.47;68.06
31585;BME280;18191;51.288;12.390;2023-03-25T19:23:09;49078.47;;;-144.47;67.46
31585;BME280;18191;51.288;12.390;2023-03-25T19:28:00;49084.44;;;-144.47;68.38
31585;BME280;18191;51.288;12.390;2023-03-25T19:32:51;49076.47;;;-144.47;68.75
31585;BME280;18191;51.288;12.390;2023-03-25T19:37:43;49060.56;;;-144.47;68.32
31585;BME280;18191;51.288;12.390;2023-03-25T19:42:39;49084.44;;;-144.47;67.74
31585;BME280;18191;51.288;12.390;2023-03-25T19:47:30;49054.59;;;-144.47;69.24
31585;BME280;18191;51.288;12.390;2023-03-25T19:52:20;49084.44;;;-144.47;69.03
31585;BME280;18191;51.288;12.390;2023-03-25T19:57:11;49048.63;;;-144.47;68.07
31585;BME280;18191;51.288;12.390;2023-03-25T20:02:01;49060.56;;;-144.47;68.63
31585;BME280;18191;51.288;12.390;2023-03-25T20:06:51;49018.78;;;-144.47;68.89
31585;BME280;18191;51.288;12.390;2023-03-25T20:11:42;49056.59;;;-144.47;68.39
31585;BME280;18191;51.288;12.390;2023-03-25T20:16:32;49066.53;;;-144.47;68.38
31585;BME280;18191;51.288;12.390;2023-03-25T20:21:24;49092.38;;;-144.47;68.62
31585;BME280;18191;51.288;12.390;2023-03-25T20:26:14;49036.69;;;-144.47;68.49
31585;BME280;18191;51.288;12.390;2023-03-25T20:31:18;49076.47;;;-144.47;69.00
31585;BME280;18191;51.288;12.390;2023-03-25T20:36:09;49088.41;;;-144.47;69.64
31585;BME280;18191;51.288;12.390;2023-03-25T20:41:00;49076.47;;;-144.47;68.53
31585;BME280;18191;51.288;12.390;2023-03-25T20:45:53;49048.63;;;-144.47;68.01
31585;BME280;18191;51.288;12.390;2023-03-25T20:50:44;49104.31;;;-144.47;67.74
31585;BME280;18191;51.288;12.390;2023-03-25T20:55:34;49098.34;;;-144.47;66.74
31585;BME280;18191;51.288;12.390;2023-03-25T21:00:25;49064.53;;;-144.47;67.22
31585;BME280;18191;51.288;12.390;2023-03-25T21:05:15;49080.44;;;-144.47;67.45
31585;BME280;18191;51.288;12.390;2023-03-25T21:10:06;49060.56;;;-144.47;66.30
31585;BME280;18191;51.288;12.390;2023-03-25T21:14:57;49052.59;;;-144.47;66.19
31585;BME280;18191;51.288;12.390;2023-03-25T21:19:47;49054.59;;;-144.47;66.66
31585;BME280;18191;51.288;12.390;2023-03-25T21:24:38;49064.53;;;-144.47;66.99
31585;BME280;18191;51.288;12.390;2023-03-25T21:29:28;49076.47;;;-144.47;68.20
31585;BME280;18191;51.288;12.390;2023-03-25T21:34:19;49046.63;;;-144.47;67.56
31585;BME280;18191;51.288;12.390;2023-03-25T21:39:10;49058.56;;;-144.47;67.51
31585;BME280;18191;51.288;12.390;2023-03-25T21:44:01;49044.66;;;-144.47;67.15
31585;BME280;18191;51.288;12.390;2023-03-25T21:48:52;49072.50;;;-144.47;66.85
31585;BME280;18191;51.288;12.390;2023-03-25T21:53:43;49068.50;;;-144.47;66.32
31585;BME280;18191;51.288;12.390;2023-03-25T21:58:35;49116.25;;;-144.47;67.38
31585;BME280;18191;51.288;12.390;2023-03-25T22:03:26;49052.59;;;-144.47;67.48
31585;BME280;18191;51.288;12.390;2023-03-25T22:08:24;49070.50;;;-144.47;69.15
31585;BME280;18191;51.288;12.390;2023-03-25T22:13:14;49072.50;;;-144.47;69.68
31585;BME280;18191;51.288;12.390;2023-03-25T22:18:04;49064.53;;;-144.47;69.28
31585;BME280;18191;51.288;12.390;2023-03-25T22:22:54;49094.38;;;-144.47;69.33
31585;BME280;18191;51.288;12.390;2023-03-25T22:27:44;49060.56;;;-144.47;69.80
31585;BME280;18191;51.288;12.390;2023-03-25T22:32:35;49068.50;;;-144.47;70.54
31585;BME280;18191;51.288;12.390;2023-03-25T22:37:25;49072.50;;;-144.47;70.68
31585;BME280;18191;51.288;12.390;2023-03-25T22:42:15;49064.53;;;-144.47;70.56
31585;BME280;18191;51.288;12.390;2023-03-25T22:47:05;49066.53;;;-144.47;70.41
31585;BME280;18191;51.288;12.390;2023-03-25T22:51:55;49076.47;;;-144.47;71.19
31585;BME280;18191;51.288;12.390;2023-03-25T22:56:46;49098.34;;;-144.47;71.53
31585;BME280;18191;51.288;12.390;2023-03-25T23:01:37;49116.25;;;-144.47;71.29
31585;BME280;18191;51.288;12.390;2023-03-25T23:06:27;49068.50;;;-144.47;71.20
31585;BME280;18191;51.288;12.390;2023-03-25T23:11:22;49068.50;;;-144.47;71.58
31585;BME280;18191;51.288;12.390;2023-03-25T23:16:14;49080.44;;;-144.47;71.60
31585;BME280;18191;51.288;12.390;2023-03-25T23:21:05;49080.44;;;-144.47;71.83
31585;BME280;18191;51.288;12.390;2023-03-25T23:25:59;49040.66;;;-144.47;71.26
31585;BME280;18191;51.288;12.390;2023-03-25T23:30:51;49078.47;;;-144.47;71.37
31585;BME280;18191;51.288;12.390;2023-03-25T23:35:42;49052.59;;;-144.47;71.68
31585;BME280;18191;51.288;12.390;2023-03-25T23:40:32;49072.50;;;-144.47;71.25
31585;BME280;18191;51.288;12.390;2023-03-25T23:45:22;49040.66;;;-144.47;70.38
31585;BME280;18191;51.288;12.390;2023-03-25T23:50:18;49060.56;;;-144.47;71.34
31585;BME280;18191;51.288;12.390;2023-03-25T23:55:09;49070.50;;;-144.47;71.04
